Time;durP1;ratioP1;P1;durP2;ratioP2;P2;SDS_P1;SDS_P2;PMS_P1;PMS_P2;Temp;Humidity;BMP_temperature;BMP_pressure;BME280_temperature;BME280_humidity;BME280_pressure;Samples;Min_cycle;Max_cycle;Signal;HPM_P1;HPM_P2
2023/08/16 08:47:59;;;;;;;6.97;3.10;;;;;;;20.19;100.00;101902.47;5061258;27;20411;-66
2023/08/16 08:50:27;;;;;;;9.95;3.05;;;;;;;20.20;100.00;101901.41;5050298;28;20037;-65
2023/08/16 08:52:56;;;;;;;6.00;2.50;;;;;;;20.23;100.00;101902.75;5049718;28;20120;-66
2023/08/16 08:55:23;;;;;;;6.53;2.50;;;;;;;20.23;100.00;101902.75;5049878;28;20109;-65
2023/08/16 08:57:50;;;;;;;7.57;2.42;;;;;;;20.25;100.00;101906.91;5049640;28;20029;-65
2023/08/16 09:00:20;;;;;;;5.65;2.30;;;;;;;20.31;100.00;101905.84;5049764;28;20044;-66
2023/08/16 09:02:49;;;;;;;5.72;2.28;;;;;;;20.39;100.00;101909.19;5027671;28;20037;-66
2023/08/16 09:05:18;;;;;;;10.30;2.50;;;;;;;20.44;100.00;101907.31;5029862;28;20026;-66
2023/08/16 09:07:44;;;;;;;7.50;2.17;;;;;;;20.52;100.00;101905.97;5029435;28;20060;-69
2023/08/16 09:10:11;;;;;;;6.45;2.55;;;;;;;20.57;100.00;101905.19;5028443;28;20060;-70
2023/08/16 09:12:38;;;;;;;5.38;2.38;;;;;;;20.68;100.00;101909.66;5027017;28;20037;-67
2023/08/16 09:15:04;;;;;;;7.38;2.72;;;;;;;20.83;100.00;101909.72;5029638;28;20036;-71
2023/08/16 09:17:29;;;;;;;5.03;2.45;;;;;;;20.83;100.00;101909.72;5029630;28;20022;-67
2023/08/16 09:19:55;;;;;;;4.68;2.60;;;;;;;20.90;95.06;101917.75;5025928;28;20067;-67
2023/08/16 09:22:20;;;;;;;6.80;2.72;;;;;;;20.93;96.56;101910.88;5026071;28;20393;-68
2023/08/16 09:24:46;;;;;;;8.20;2.47;;;;;;;20.95;100.00;101909.50;5028886;28;20045;-68
2023/08/16 09:27:11;;;;;;;6.57;3.05;;;;;;;20.89;90.43;101911.44;5029438;28;20026;-68
2023/08/16 09:29:39;;;;;;;6.35;2.55;;;;;;;20.88;94.38;101906.19;5027984;28;20530;-66
2023/08/16 09:32:06;;;;;;;9.52;2.88;;;;;;;20.91;96.26;101913.06;5028948;28;20057;-67
2023/08/16 09:34:32;;;;;;;6.07;2.60;;;;;;;20.93;90.54;101908.13;5029301;28;20026;-68
2023/08/16 09:36:57;;;;;;;6.50;2.67;;;;;;;21.02;93.89;101906.50;5027096;28;20040;-69
2023/08/16 09:39:26;;;;;;;7.97;3.30;;;;;;;21.09;94.11;101909.00;5028399;28;20468;-66
2023/08/16 09:41:51;;;;;;;7.75;3.10;;;;;;;21.17;96.33;101916.75;5028151;28;20026;-66
2023/08/16 09:44:17;;;;;;;6.97;3.10;;;;;;;21.27;100.00;101905.75;5029101;28;20052;-66
2023/08/16 09:46:43;;;;;;;6.93;2.97;;;;;;;21.30;98.89;101909.88;5028572;28;20350;-66
2023/08/16 09:49:12;;;;;;;6.03;3.10;;;;;;;21.28;90.06;101907.41;5028180;28;20037;-67
2023/08/16 09:51:40;;;;;;;10.40;3.03;;;;;;;21.30;96.35;101904.38;5026692;28;20354;-66
2023/08/16 09:54:13;;;;;;;7.10;3.63;;;;;;;21.35;93.27;101907.97;5028073;28;20354;-66
2023/08/16 09:56:39;;;;;;;7.78;3.13;;;;;;;21.39;99.66;101903.59;5022799;28;20108;-67
2023/08/16 09:59:07;;;;;;;7.88;3.42;;;;;;;21.41;92.68;101906.88;5016718;28;20022;-67
2023/08/16 10:01:33;;;;;;;6.35;3.80;;;;;;;21.40;90.39;101905.22;5010860;28;20107;-66
2023/08/16 10:03:58;;;;;;;7.50;3.55;;;;;;;21.46;90.04;101902.50;5015627;28;20519;-67
2023/08/16 10:06:24;;;;;;;7.85;3.40;;;;;;;21.50;99.37;101903.59;5014830;28;20365;-69
2023/08/16 10:08:52;;;;;;;6.95;3.10;;;;;;;21.49;92.75;101900.00;5015315;28;20116;-70
2023/08/16 10:11:18;;;;;;;11.02;3.10;;;;;;;21.46;91.45;101897.81;5013530;28;20468;-70
2023/08/16 10:13:44;;;;;;;9.50;2.90;;;;;;;21.49;93.28;101901.94;5010508;28;20363;-70
2023/08/16 10:16:11;;;;;;;8.68;3.40;;;;;;;21.52;95.29;101896.72;5003445;28;20033;-70
2023/08/16 10:18:39;;;;;;;10.95;3.10;;;;;;;21.53;93.66;101898.41;5014102;28;20029;-69
2023/08/16 10:21:06;;;;;;;7.90;3.13;;;;;;;21.59;100.00;101896.47;5013165;28;20030;-71
2023/08/16 10:23:35;;;;;;;7.68;3.30;;;;;;;21.58;100.00;101903.91;5014329;28;20040;-70
2023/08/16 10:26:03;;;;;;;7.45;3.67;;;;;;;21.58;97.75;101903.09;5013136;28;20442;-72
2023/08/16 10:28:32;;;;;;;10.10;3.88;;;;;;;21.56;97.17;101905.28;5014284;28;20025;-71
2023/08/16 10:30:59;;;;;;;7.35;3.67;;;;;;;21.61;100.00;101899.78;5003593;28;20472;-72
2023/08/16 10:33:33;;;;;;;8.43;3.28;;;;;;;21.69;100.00;101893.72;4995259;28;20029;-72
2023/08/16 10:36:03;;;;;;;7.70;3.63;;;;;;;21.72;99.93;101901.44;5014166;28;20022;-72
2023/08/16 10:38:38;;;;;;;10.82;4.10;;;;;;;21.71;97.14;101894.28;5014655;28;20026;-72
2023/08/16 10:41:15;;;;;;;10.13;4.07;;;;;;;21.84;100.00;101898.41;5012759;28;20037;-71
2023/08/16 10:43:51;;;;;;;10.07;4.13;;;;;;;21.89;100.00;101898.41;5013398;28;20041;-72
2023/08/16 10:46:33;;;;;;;8.70;3.42;;;;;;;21.98;98.16;101890.41;5009618;28;20136;-75
2023/08/16 10:49:05;;;;;;;9.38;3.70;;;;;;;21.94;88.30;101892.88;4994307;28;20174;-71
2023/08/16 10:51:42;;;;;;;7.90;3.35;;;;;;;22.03;95.88;101890.41;5009905;28;20033;-72
2023/08/16 10:54:08;;;;;;;7.30;3.50;;;;;;;22.08;95.32;101881.31;5012742;28;20112;-71
2023/08/16 10:56:44;;;;;;;5.70;3.28;;;;;;;22.19;93.05;101884.88;4995614;28;20126;-73
2023/08/16 10:59:09;;;;;;;7.45;3.70;;;;;;;22.11;90.04;101889.84;5004332;28;20030;-70
2023/08/16 11:01:35;;;;;;;8.70;3.60;;;;;;;22.14;100.00;101891.22;5010082;28;20040;-71
2023/08/16 11:04:02;;;;;;;8.73;3.65;;;;;;;22.18;90.19;101897.00;5013917;28;20033;-73
2023/08/16 11:06:28;;;;;;;8.68;3.50;;;;;;;22.12;98.73;101883.22;5010991;28;20056;-71
2023/08/16 11:08:53;;;;;;;7.32;3.90;;;;;;;22.20;89.27;101892.03;5013158;28;20372;-73
2023/08/16 11:11:19;;;;;;;5.30;3.25;;;;;;;22.16;83.42;101894.50;5012692;28;20490;-71
2023/08/16 11:13:44;;;;;;;7.20;3.10;;;;;;;22.17;83.96;101890.66;5013229;28;20485;-72
2023/08/16 11:16:10;;;;;;;8.65;3.60;;;;;;;22.23;85.64;101897.00;5013125;28;20036;-72
2023/08/16 11:18:37;;;;;;;6.75;3.58;;;;;;;22.24;87.89;101898.66;5013942;28;20026;-72
2023/08/16 11:21:07;;;;;;;6.93;3.33;;;;;;;22.33;81.93;101887.91;5009347;28;20070;-73
2023/08/16 11:23:35;;;;;;;8.18;3.33;;;;;;;22.23;78.40;101899.75;5013089;28;20021;-72
2023/08/16 11:26:02;;;;;;;7.68;3.10;;;;;;;22.24;83.04;101888.44;5012592;28;20034;-71
2023/08/16 11:28:28;;;;;;;10.05;3.47;;;;;;;22.30;85.92;101881.00;5011750;28;20449;-72
2023/08/16 11:30:58;;;;;;;9.50;3.05;;;;;;;22.40;88.05;101871.88;5012698;28;20105;-73
2023/08/16 11:33:23;;;;;;;6.45;3.20;;;;;;;22.60;89.94;101876.50;5013692;28;20022;-72
2023/08/16 11:35:49;;;;;;;7.50;2.97;;;;;;;22.75;90.34;101868.19;5005140;28;20048;-73
2023/08/16 11:38:14;;;;;;;7.15;2.90;;;;;;;23.05;99.60;101874.63;5013177;28;20083;-72
2023/08/16 11:40:40;;;;;;;4.35;2.45;;;;;;;23.08;80.18;101874.06;5012923;28;20053;-71
2023/08/16 11:43:06;;;;;;;6.68;3.05;;;;;;;23.07;76.56;101869.69;5010568;28;20033;-73
2023/08/16 11:45:31;;;;;;;7.57;3.38;;;;;;;23.10;84.01;101868.28;5012772;28;20017;-71
2023/08/16 11:47:56;;;;;;;6.82;2.97;;;;;;;23.18;78.28;101874.03;5013489;28;20449;-71
2023/08/16 11:50:25;;;;;;;5.72;3.10;;;;;;;23.13;75.57;101885.13;5007545;28;20026;-73
2023/08/16 11:52:57;;;;;;;9.68;3.03;;;;;;;23.22;84.97;101862.44;5011255;28;20080;-71
2023/08/16 11:55:23;;;;;;;6.55;3.50;;;;;;;23.15;76.91;101860.81;4997639;28;20072;-72
2023/08/16 11:57:49;;;;;;;7.93;3.13;;;;;;;23.17;79.09;101861.38;5013272;28;20028;-71
2023/08/16 12:00:25;;;;;;;8.52;3.20;;;;;;;23.16;80.26;101859.72;5012867;28;20104;-73
2023/08/16 12:02:50;;;;;;;6.55;2.88;;;;;;;23.28;78.84;101859.38;5009208;28;20041;-70
2023/08/16 12:05:15;;;;;;;6.03;2.90;;;;;;;23.33;82.30;101855.75;5010125;28;20052;-70
2023/08/16 12:07:42;;;;;;;8.00;2.97;;;;;;;23.36;75.70;101860.69;5010323;28;20060;-72
2023/08/16 12:10:07;;;;;;;6.55;3.40;;;;;;;23.32;76.06;101859.59;5013138;28;20025;-72
2023/08/16 12:12:33;;;;;;;4.53;2.70;;;;;;;23.27;70.17;101857.69;5013301;28;20025;-72
2023/08/16 12:14:58;;;;;;;9.13;2.92;;;;;;;23.27;73.22;101860.47;5011828;28;20420;-70
2023/08/16 12:17:24;;;;;;;7.63;3.33;;;;;;;23.24;77.36;101858.28;5013341;28;20026;-71
2023/08/16 12:19:50;;;;;;;7.78;3.15;;;;;;;23.22;73.12;101860.50;5004704;28;20509;-72
2023/08/16 12:22:15;;;;;;;6.38;3.10;;;;;;;23.16;71.79;101862.47;5007419;28;20026;-70
2023/08/16 12:24:40;;;;;;;6.75;2.80;;;;;;;23.20;75.43;101853.63;5012285;28;20025;-73
2023/08/16 12:27:06;;;;;;;8.65;2.95;;;;;;;23.23;75.53;101853.03;5012547;28;20377;-71
2023/08/16 12:29:32;;;;;;;7.82;3.00;;;;;;;23.33;78.37;101850.22;5013068;28;20038;-70
2023/08/16 12:31:58;;;;;;;5.57;2.50;;;;;;;23.25;69.65;101848.03;5012844;28;20030;-71
2023/08/16 12:34:23;;;;;;;8.13;2.90;;;;;;;23.28;73.45;101841.94;5012537;28;20029;-71
2023/08/16 12:36:48;;;;;;;12.05;3.10;;;;;;;23.34;76.68;101840.78;5011889;28;20084;-73
2023/08/16 12:39:14;;;;;;;6.95;3.15;;;;;;;23.38;76.33;101830.00;5011682;28;20022;-69
2023/08/16 12:41:39;;;;;;;7.25;2.90;;;;;;;23.44;74.70;101835.19;5012849;28;20096;-72
2023/08/16 12:44:05;;;;;;;5.65;2.95;;;;;;;23.43;72.00;101833.56;5010243;28;20031;-72
2023/08/16 12:46:30;;;;;;;5.47;2.70;;;;;;;23.50;75.62;101828.50;5011102;28;20056;-73
2023/08/16 12:48:55;;;;;;;4.60;2.60;;;;;;;23.68;75.80;101831.69;5012649;28;20025;-70
2023/08/16 12:51:21;;;;;;;5.60;2.83;;;;;;;23.85;72.92;101825.75;5011549;28;20022;-72
2023/08/16 12:53:46;;;;;;;7.68;2.55;;;;;;;23.97;73.11;101830.91;5012415;28;20342;-71
2023/08/16 12:56:12;;;;;;;8.25;2.17;;;;;;;24.24;73.21;101825.59;5012669;28;20033;-70
2023/08/16 12:58:37;;;;;;;13.02;2.20;;;;;;;24.29;72.84;101821.16;5010789;28;20025;-69
2023/08/16 13:01:03;;;;;;;6.25;2.42;;;;;;;24.27;64.13;101824.19;5009204;28;20454;-72
2023/08/16 13:03:28;;;;;;;6.32;2.50;;;;;;;24.50;66.19;101833.59;5011577;28;20105;-72
2023/08/16 13:05:53;;;;;;;3.75;2.30;;;;;;;24.50;63.83;101825.31;5012687;28;20032;-70
2023/08/16 13:08:21;;;;;;;4.38;2.35;;;;;;;24.61;62.50;101825.19;5012666;28;20106;-71
2023/08/16 13:10:46;;;;;;;5.97;2.15;;;;;;;24.38;64.38;101813.84;5012389;28;20377;-70
2023/08/16 13:13:11;;;;;;;8.35;2.65;;;;;;;24.30;65.31;101817.28;5011580;28;20032;-73
2023/08/16 13:15:36;;;;;;;6.72;2.60;;;;;;;24.40;64.56;101808.84;5011277;28;20507;-71
2023/08/16 13:18:02;;;;;;;4.38;2.50;;;;;;;24.53;64.91;101810.06;5009168;28;20441;-72
2023/08/16 13:20:29;;;;;;;4.75;2.67;;;;;;;24.66;65.83;101805.78;5000710;28;20458;-73
2023/08/16 13:22:55;;;;;;;4.30;2.30;;;;;;;24.79;63.95;101815.28;5006641;28;20413;-72
2023/08/16 13:25:20;;;;;;;4.47;2.10;;;;;;;24.63;61.66;101820.22;5006431;28;20037;-71
2023/08/16 13:27:45;;;;;;;7.35;2.10;;;;;;;24.55;59.81;101811.41;4999549;28;20057;-74
2023/08/16 13:30:12;;;;;;;3.72;2.25;;;;;;;24.77;59.05;101815.56;4999822;28;20032;-71
2023/08/16 13:32:37;;;;;;;5.57;2.03;;;;;;;24.85;59.04;101806.63;5011490;28;20030;-70
2023/08/16 13:35:02;;;;;;;5.50;2.72;;;;;;;24.89;58.02;101813.19;5015827;28;20449;-70
2023/08/16 13:37:29;;;;;;;8.75;3.08;;;;;;;24.88;61.27;101806.03;5015743;28;20084;-73
2023/08/16 13:39:54;;;;;;;5.35;3.00;;;;;;;24.84;61.42;101809.69;5014119;28;20022;-71
2023/08/16 13:42:20;;;;;;;5.75;2.40;;;;;;;24.82;63.01;101810.00;5010533;28;20034;-73
2023/08/16 13:44:46;;;;;;;4.97;2.00;;;;;;;25.06;63.58;101811.84;5012747;28;20473;-71
2023/08/16 13:47:11;;;;;;;7.45;2.25;;;;;;;25.31;62.07;101807.06;5012773;28;20096;-72
2023/08/16 13:49:36;;;;;;;5.93;2.10;;;;;;;25.34;60.35;101817.53;5016261;28;20026;-72
2023/08/16 13:52:02;;;;;;;5.50;2.22;;;;;;;25.38;57.26;101821.34;5014428;28;20372;-74
2023/08/16 13:54:27;;;;;;;5.47;2.00;;;;;;;25.25;58.11;101820.16;5014427;28;20044;-72
2023/08/16 13:56:53;;;;;;;4.35;2.00;;;;;;;25.05;60.46;101821.28;5019310;28;20052;-71
2023/08/16 13:59:19;;;;;;;5.07;2.13;;;;;;;24.90;61.73;101816.78;5021285;28;20026;-72
2023/08/16 14:01:44;;;;;;;4.25;2.20;;;;;;;24.87;61.46;101820.97;5003631;28;20042;-70
2023/08/16 14:04:10;;;;;;;4.88;2.10;;;;;;;24.68;61.38;101820.13;5013187;28;20041;-69
2023/08/16 14:06:35;;;;;;;3.42;2.00;;;;;;;24.61;61.15;101825.19;5011185;28;20033;-69
2023/08/16 14:09:01;;;;;;;4.95;2.40;;;;;;;24.65;61.84;101818.78;5012993;28;20052;-69
2023/08/16 14:11:26;;;;;;;3.70;1.80;;;;;;;24.69;61.05;101814.31;5012479;28;20416;-70
2023/08/16 14:13:52;;;;;;;7.70;2.40;;;;;;;24.71;61.53;101814.81;5015097;28;20501;-72
2023/08/16 14:16:18;;;;;;;4.18;2.00;;;;;;;24.80;63.63;101820.50;5013968;28;20022;-72
2023/08/16 14:18:43;;;;;;;3.53;1.90;;;;;;;24.73;60.84;101826.44;5015335;28;20021;-74
2023/08/16 14:21:08;;;;;;;5.35;2.20;;;;;;;24.66;61.84;101816.84;5014262;28;20025;-76
2023/08/16 14:23:34;;;;;;;3.60;2.08;;;;;;;24.70;63.43;101820.66;5014056;28;20050;-72
2023/08/16 14:25:59;;;;;;;5.38;2.40;;;;;;;24.68;63.00;101814.59;5026990;28;20037;-74
2023/08/16 14:28:34;;;;;;;5.25;2.58;;;;;;;24.67;63.48;101821.25;5014351;28;20029;-74
2023/08/16 14:31:09;;;;;;;6.00;2.20;;;;;;;24.79;64.96;101816.13;5013409;28;20030;-75
2023/08/16 14:33:35;;;;;;;4.53;2.30;;;;;;;24.82;62.79;101811.91;5013729;28;20472;-74
2023/08/16 14:36:01;;;;;;;6.00;2.10;;;;;;;24.89;64.05;101810.41;5014781;28;20077;-74
2023/08/16 14:38:26;;;;;;;3.47;2.20;;;;;;;25.12;64.55;101816.16;5013428;28;20026;-75
2023/08/16 14:40:54;;;;;;;5.55;2.20;;;;;;;25.22;61.76;101817.97;5013881;28;20021;-82
2023/08/16 14:43:19;;;;;;;5.05;2.15;;;;;;;25.62;60.61;101819.28;4996863;28;20450;-75
2023/08/16 14:45:44;;;;;;;4.03;1.88;;;;;;;26.06;57.07;101824.59;4995428;28;20093;-76
2023/08/16 14:48:10;;;;;;;4.03;2.10;;;;;;;26.37;56.44;101819.28;5000468;28;20564;-79
2023/08/16 14:50:35;;;;;;;6.18;2.28;;;;;;;26.41;55.62;101822.28;5030007;28;20113;-75
2023/08/16 14:53:00;;;;;;;6.13;2.38;;;;;;;26.15;56.59;101820.81;5014557;28;20021;-73
2023/08/16 14:55:26;;;;;;;3.95;2.00;;;;;;;25.86;58.48;101818.28;5013869;28;20022;-75
2023/08/16 14:58:01;;;;;;;6.70;2.50;;;;;;;25.69;60.72;101818.88;5009513;28;20025;-76
2023/08/16 15:00:27;;;;;;;3.72;2.33;;;;;;;25.41;60.08;101816.03;5012787;28;20025;-71
2023/08/16 15:02:53;;;;;;;5.75;2.30;;;;;;;25.20;61.67;101815.50;5012308;28;20120;-70
2023/08/16 15:05:19;;;;;;;6.15;2.58;;;;;;;25.13;63.61;101806.75;5014295;28;20457;-70
2023/08/16 15:07:45;;;;;;;7.22;2.90;;;;;;;25.18;62.32;101817.75;5014464;28;20030;-69
2023/08/16 15:10:10;;;;;;;6.60;3.10;;;;;;;25.02;64.71;101810.81;5013030;28;20064;-70
2023/08/16 15:12:38;;;;;;;3.47;2.15;;;;;;;25.17;65.58;101810.56;5012481;28;20033;-70
2023/08/16 15:15:05;;;;;;;6.20;2.38;;;;;;;25.36;61.58;101807.78;4994351;28;20034;-70
2023/08/16 15:17:31;;;;;;;4.90;2.30;;;;;;;25.76;61.96;101807.41;5002212;28;20025;-70
2023/08/16 15:19:56;;;;;;;5.15;2.63;;;;;;;25.90;60.57;101801.88;5012125;28;20040;-70
2023/08/16 15:22:23;;;;;;;4.60;2.33;;;;;;;25.85;58.95;101800.03;5009440;28;20022;-70
2023/08/16 15:24:49;;;;;;;7.32;2.65;;;;;;;25.94;59.17;101797.38;5014146;28;20026;-71
2023/08/16 15:27:15;;;;;;;7.57;2.50;;;;;;;25.90;58.28;101799.91;5012989;28;20121;-69
2023/08/16 15:29:40;;;;;;;3.88;2.13;;;;;;;25.98;58.27;101788.16;5012220;28;20524;-71
2023/08/16 15:32:05;;;;;;;4.85;2.40;;;;;;;25.79;58.73;101785.44;5012656;28;20560;-71
2023/08/16 15:34:31;;;;;;;5.55;2.40;;;;;;;25.62;58.51;101791.56;5012485;28;20101;-71
2023/08/16 15:36:56;;;;;;;8.93;2.80;;;;;;;25.60;59.71;101791.03;5012759;28;20025;-71
2023/08/16 15:39:22;;;;;;;6.07;2.30;;;;;;;25.60;60.46;101782.72;5012530;28;20018;-71
2023/08/16 15:41:48;;;;;;;3.17;2.33;;;;;;;25.56;59.67;101781.69;5012957;28;20034;-71
2023/08/16 15:44:13;;;;;;;7.43;2.45;;;;;;;25.40;58.97;101792.22;5012291;28;20491;-71
2023/08/16 15:46:38;;;;;;;4.25;2.33;;;;;;;25.24;61.50;101791.63;5013112;28;20050;-73
2023/08/16 15:49:04;;;;;;;4.90;2.60;;;;;;;25.09;60.14;101789.91;5011064;28;20034;-71
2023/08/16 15:51:30;;;;;;;6.63;2.95;;;;;;;24.98;60.71;101785.66;5014895;28;20053;-69
2023/08/16 15:53:55;;;;;;;7.43;3.25;;;;;;;24.98;62.04;101784.84;5013668;28;20445;-68
2023/08/16 15:56:20;;;;;;;4.68;2.60;;;;;;;24.96;62.44;101782.38;5012671;28;20025;-69
2023/08/16 15:58:46;;;;;;;4.97;2.20;;;;;;;24.83;62.16;101778.41;5013696;28;20109;-72
2023/08/16 16:01:11;;;;;;;8.70;2.83;;;;;;;24.81;63.16;101775.13;5008458;28;20041;-72
2023/08/16 16:03:37;;;;;;;7.18;2.58;;;;;;;24.71;64.23;101767.75;5011678;28;20033;-73
